sensor_id;sensor_type;location;lat;lon;timestamp;temperature;humidity
18412;DHT22;27097;51.738;19.472;2022-09-09T00:00:22;22.10;56.40
18412;DHT22;27097;51.738;19.472;2022-09-09T00:02:56;22.10;56.50
18412;DHT22;27097;51.738;19.472;2022-09-09T00:05:31;22.00;57.00
18412;DHT22;27097;51.738;19.472;2022-09-09T00:08:03;22.00;58.00
18412;DHT22;27097;51.738;19.472;2022-09-09T00:10:34;22.00;59.10
18412;DHT22;27097;51.738;19.472;2022-09-09T00:13:13;22.10;59.30
18412;DHT22;27097;51.738;19.472;2022-09-09T00:15:49;22.10;59.10
18412;DHT22;27097;51.738;19.472;2022-09-09T00:18:24;22.10;58.90
18412;DHT22;27097;51.738;19.472;2022-09-09T00:20:57;22.20;58.60
18412;DHT22;27097;51.738;19.472;2022-09-09T00:23:28;22.20;58.70
18412;DHT22;27097;51.738;19.472;2022-09-09T00:26:02;22.30;58.60
18412;DHT22;27097;51.738;19.472;2022-09-09T00:28:33;22.30;58.70
18412;DHT22;27097;51.738;19.472;2022-09-09T00:31:11;22.30;58.80
18412;DHT22;27097;51.738;19.472;2022-09-09T00:33:38;22.30;58.70
18412;DHT22;27097;51.738;19.472;2022-09-09T00:36:12;22.30;58.50
18412;DHT22;27097;51.738;19.472;2022-09-09T00:38:45;22.20;58.40
18412;DHT22;27097;51.738;19.472;2022-09-09T00:41:19;22.30;59.00
18412;DHT22;27097;51.738;19.472;2022-09-09T00:43:56;22.20;58.40
18412;DHT22;27097;51.738;19.472;2022-09-09T00:46:50;22.30;58.60
18412;DHT22;27097;51.738;19.472;2022-09-09T00:49:28;22.20;58.60
18412;DHT22;27097;51.738;19.472;2022-09-09T00:52:11;22.20;58.40
18412;DHT22;27097;51.738;19.472;2022-09-09T00:54:49;22.30;58.60
18412;DHT22;27097;51.738;19.472;2022-09-09T00:57:26;22.20;58.50
18412;DHT22;27097;51.738;19.472;2022-09-09T01:00:00;22.20;58.40
18412;DHT22;27097;51.738;19.472;2022-09-09T01:02:39;22.20;58.50
18412;DHT22;27097;51.738;19.472;2022-09-09T01:05:12;22.20;58.60
18412;DHT22;27097;51.738;19.472;2022-09-09T01:07:44;22.20;58.40
18412;DHT22;27097;51.738;19.472;2022-09-09T01:10:22;22.20;58.60
18412;DHT22;27097;51.738;19.472;2022-09-09T01:12:54;22.20;58.50
18412;DHT22;27097;51.738;19.472;2022-09-09T01:15:26;22.20;58.50
18412;DHT22;27097;51.738;19.472;2022-09-09T01:18:00;22.20;58.30
18412;DHT22;27097;51.738;19.472;2022-09-09T01:20:31;22.20;58.50
18412;DHT22;27097;51.738;19.472;2022-09-09T01:23:29;22.20;58.40
18412;DHT22;27097;51.738;19.472;2022-09-09T01:28:47;22.10;58.40
18412;DHT22;27097;51.738;19.472;2022-09-09T01:31:17;22.10;58.50
18412;DHT22;27097;51.738;19.472;2022-09-09T01:33:45;22.10;58.30
18412;DHT22;27097;51.738;19.472;2022-09-09T01:36:17;22.00;58.60
18412;DHT22;27097;51.738;19.472;2022-09-09T01:38:46;22.00;58.60
18412;DHT22;27097;51.738;19.472;2022-09-09T01:41:14;22.10;58.60
18412;DHT22;27097;51.738;19.472;2022-09-09T01:43:41;22.00;58.70
18412;DHT22;27097;51.738;19.472;2022-09-09T01:46:08;22.00;58.80
18412;DHT22;27097;51.738;19.472;2022-09-09T01:48:36;22.00;59.00
18412;DHT22;27097;51.738;19.472;2022-09-09T01:51:03;22.00;59.20
18412;DHT22;27097;51.738;19.472;2022-09-09T01:53:30;22.00;59.20
18412;DHT22;27097;51.738;19.472;2022-09-09T01:56:05;22.00;59.20
18412;DHT22;27097;51.738;19.472;2022-09-09T01:58:46;22.00;59.10
18412;DHT22;27097;51.738;19.472;2022-09-09T02:01:21;22.00;59.10
18412;DHT22;27097;51.738;19.472;2022-09-09T02:03:52;22.00;59.20
18412;DHT22;27097;51.738;19.472;2022-09-09T02:06:27;22.00;59.20
18412;DHT22;27097;51.738;19.472;2022-09-09T02:08:56;22.00;59.10
18412;DHT22;27097;51.738;19.472;2022-09-09T02:11:27;22.10;59.30
18412;DHT22;27097;51.738;19.472;2022-09-09T02:13:58;22.10;59.20
18412;DHT22;27097;51.738;19.472;2022-09-09T02:16:30;22.10;59.10
18412;DHT22;27097;51.738;19.472;2022-09-09T02:19:02;22.10;59.10
18412;DHT22;27097;51.738;19.472;2022-09-09T02:21:33;22.10;59.20
18412;DHT22;27097;51.738;19.472;2022-09-09T02:24:03;22.10;59.20
18412;DHT22;27097;51.738;19.472;2022-09-09T02:26:32;22.10;59.30
18412;DHT22;27097;51.738;19.472;2022-09-09T02:29:04;22.10;59.20
18412;DHT22;27097;51.738;19.472;2022-09-09T02:31:33;22.10;59.20
18412;DHT22;27097;51.738;19.472;2022-09-09T02:34:02;22.10;59.40
18412;DHT22;27097;51.738;19.472;2022-09-09T02:36:32;22.10;59.10
18412;DHT22;27097;51.738;19.472;2022-09-09T02:39:01;22.10;59.30
18412;DHT22;27097;51.738;19.472;2022-09-09T02:41:32;22.10;59.40
18412;DHT22;27097;51.738;19.472;2022-09-09T02:44:00;22.10;59.30
18412;DHT22;27097;51.738;19.472;2022-09-09T02:46:36;22.10;59.20
18412;DHT22;27097;51.738;19.472;2022-09-09T02:49:09;22.10;58.90
18412;DHT22;27097;51.738;19.472;2022-09-09T02:51:43;22.00;59.10
18412;DHT22;27097;51.738;19.472;2022-09-09T02:54:21;22.00;59.20
18412;DHT22;27097;51.738;19.472;2022-09-09T02:56:53;21.90;59.70
18412;DHT22;27097;51.738;19.472;2022-09-09T02:59:22;21.90;59.70
18412;DHT22;27097;51.738;19.472;2022-09-09T03:01:50;21.90;59.70
18412;DHT22;27097;51.738;19.472;2022-09-09T03:04:20;21.90;59.80
18412;DHT22;27097;51.738;19.472;2022-09-09T03:06:46;21.90;59.90
18412;DHT22;27097;51.738;19.472;2022-09-09T03:09:13;21.80;59.90
18412;DHT22;27097;51.738;19.472;2022-09-09T03:11:40;21.80;60.30
18412;DHT22;27097;51.738;19.472;2022-09-09T03:14:07;21.70;60.30
18412;DHT22;27097;51.738;19.472;2022-09-09T03:16:37;21.70;60.20
18412;DHT22;27097;51.738;19.472;2022-09-09T03:19:05;21.70;60.50
18412;DHT22;27097;51.738;19.472;2022-09-09T03:21:32;21.70;60.70
18412;DHT22;27097;51.738;19.472;2022-09-09T03:23:59;21.60;61.10
18412;DHT22;27097;51.738;19.472;2022-09-09T03:26:29;21.60;61.00
18412;DHT22;27097;51.738;19.472;2022-09-09T03:28:57;21.60;61.10
18412;DHT22;27097;51.738;19.472;2022-09-09T03:31:26;21.60;61.20
18412;DHT22;27097;51.738;19.472;2022-09-09T03:33:55;21.60;61.20
18412;DHT22;27097;51.738;19.472;2022-09-09T03:36:25;21.60;61.40
18412;DHT22;27097;51.738;19.472;2022-09-09T03:38:53;21.60;61.20
18412;DHT22;27097;51.738;19.472;2022-09-09T03:41:21;21.60;62.10
18412;DHT22;27097;51.738;19.472;2022-09-09T03:43:49;21.60;61.80
18412;DHT22;27097;51.738;19.472;2022-09-09T03:46:16;21.60;61.60
18412;DHT22;27097;51.738;19.472;2022-09-09T03:48:43;21.60;61.50
18412;DHT22;27097;51.738;19.472;2022-09-09T03:51:10;21.60;61.80
18412;DHT22;27097;51.738;19.472;2022-09-09T03:53:38;21.50;61.50
18412;DHT22;27097;51.738;19.472;2022-09-09T03:56:06;21.50;62.00
18412;DHT22;27097;51.738;19.472;2022-09-09T03:58:34;21.40;61.90
18412;DHT22;27097;51.738;19.472;2022-09-09T04:01:02;21.50;63.10
18412;DHT22;27097;51.738;19.472;2022-09-09T04:03:30;21.50;62.30
18412;DHT22;27097;51.738;19.472;2022-09-09T04:05:58;21.40;62.30
18412;DHT22;27097;51.738;19.472;2022-09-09T04:08:26;21.50;62.40
18412;DHT22;27097;51.738;19.472;2022-09-09T04:10:54;21.50;62.40
18412;DHT22;27097;51.738;19.472;2022-09-09T04:13:24;21.50;62.40
18412;DHT22;27097;51.738;19.472;2022-09-09T04:15:52;21.50;62.70
18412;DHT22;27097;51.738;19.472;2022-09-09T04:18:20;21.50;62.70
18412;DHT22;27097;51.738;19.472;2022-09-09T04:20:48;21.50;62.70
18412;DHT22;27097;51.738;19.472;2022-09-09T04:23:16;21.50;63.00
18412;DHT22;27097;51.738;19.472;2022-09-09T04:25:44;21.50;62.90
18412;DHT22;27097;51.738;19.472;2022-09-09T04:28:13;21.50;63.10
18412;DHT22;27097;51.738;19.472;2022-09-09T04:30:40;21.50;63.00
18412;DHT22;27097;51.738;19.472;2022-09-09T04:33:08;21.60;63.10
18412;DHT22;27097;51.738;19.472;2022-09-09T04:35:37;21.60;63.30
18412;DHT22;27097;51.738;19.472;2022-09-09T04:38:05;21.50;63.40
18412;DHT22;27097;51.738;19.472;2022-09-09T04:40:35;21.50;63.70
18412;DHT22;27097;51.738;19.472;2022-09-09T04:43:02;21.50;63.80
18412;DHT22;27097;51.738;19.472;2022-09-09T04:45:31;21.50;64.00
18412;DHT22;27097;51.738;19.472;2022-09-09T04:47:59;21.50;64.30
18412;DHT22;27097;51.738;19.472;2022-09-09T04:50:26;21.50;64.60
18412;DHT22;27097;51.738;19.472;2022-09-09T04:52:54;21.50;64.60
18412;DHT22;27097;51.738;19.472;2022-09-09T04:55:21;21.50;64.70
18412;DHT22;27097;51.738;19.472;2022-09-09T04:57:47;21.50;64.70
18412;DHT22;27097;51.738;19.472;2022-09-09T05:00:15;21.50;64.60
18412;DHT22;27097;51.738;19.472;2022-09-09T05:02:44;21.60;64.70
18412;DHT22;27097;51.738;19.472;2022-09-09T05:05:10;21.60;64.50
18412;DHT22;27097;51.738;19.472;2022-09-09T05:07:37;21.70;64.60
18412;DHT22;27097;51.738;19.472;2022-09-09T05:10:05;21.70;64.50
18412;DHT22;27097;51.738;19.472;2022-09-09T05:12:32;21.70;64.50
18412;DHT22;27097;51.738;19.472;2022-09-09T05:14:58;21.70;64.70
18412;DHT22;27097;51.738;19.472;2022-09-09T05:17:25;21.70;64.80
18412;DHT22;27097;51.738;19.472;2022-09-09T05:19:54;21.70;64.70
18412;DHT22;27097;51.738;19.472;2022-09-09T05:22:22;21.70;65.00
18412;DHT22;27097;51.738;19.472;2022-09-09T05:24:49;21.70;65.30
18412;DHT22;27097;51.738;19.472;2022-09-09T05:27:17;21.80;65.20
18412;DHT22;27097;51.738;19.472;2022-09-09T05:29:45;21.80;65.00
18412;DHT22;27097;51.738;19.472;2022-09-09T05:32:12;21.90;65.00
18412;DHT22;27097;51.738;19.472;2022-09-09T05:34:40;21.90;65.30
18412;DHT22;27097;51.738;19.472;2022-09-09T05:37:08;21.90;65.20
18412;DHT22;27097;51.738;19.472;2022-09-09T05:39:36;21.90;65.30
18412;DHT22;27097;51.738;19.472;2022-09-09T05:42:04;22.00;65.60
18412;DHT22;27097;51.738;19.472;2022-09-09T05:44:32;22.00;65.60
18412;DHT22;27097;51.738;19.472;2022-09-09T05:46:59;22.00;65.70
18412;DHT22;27097;51.738;19.472;2022-09-09T05:49:26;22.00;65.80
18412;DHT22;27097;51.738;19.472;2022-09-09T05:51:53;22.00;66.10
18412;DHT22;27097;51.738;19.472;2022-09-09T05:54:21;22.00;66.20
18412;DHT22;27097;51.738;19.472;2022-09-09T05:56:48;22.10;65.60
18412;DHT22;27097;51.738;19.472;2022-09-09T05:59:18;22.20;65.90
18412;DHT22;27097;51.738;19.472;2022-09-09T06:01:45;22.30;65.10
18412;DHT22;27097;51.738;19.472;2022-09-09T06:04:12;22.40;64.60
18412;DHT22;27097;51.738;19.472;2022-09-09T06:06:39;22.40;64.40
18412;DHT22;27097;51.738;19.472;2022-09-09T06:09:08;22.50;65.10
18412;DHT22;27097;51.738;19.472;2022-09-09T06:11:39;22.60;64.80
18412;DHT22;27097;51.738;19.472;2022-09-09T06:14:07;22.70;64.80
18412;DHT22;27097;51.738;19.472;2022-09-09T06:16:35;22.70;64.10
18412;DHT22;27097;51.738;19.472;2022-09-09T06:19:03;22.80;64.20
18412;DHT22;27097;51.738;19.472;2022-09-09T06:21:31;22.80;64.00
18412;DHT22;27097;51.738;19.472;2022-09-09T06:23:59;22.90;63.90
18412;DHT22;27097;51.738;19.472;2022-09-09T06:26:28;22.90;63.60
18412;DHT22;27097;51.738;19.472;2022-09-09T06:28:58;22.90;63.20
18412;DHT22;27097;51.738;19.472;2022-09-09T06:31:27;23.00;63.20
18412;DHT22;27097;51.738;19.472;2022-09-09T06:33:56;23.00;63.00
18412;DHT22;27097;51.738;19.472;2022-09-09T06:36:25;23.00;62.90
18412;DHT22;27097;51.738;19.472;2022-09-09T06:38:52;23.10;63.80
18412;DHT22;27097;51.738;19.472;2022-09-09T06:41:21;23.10;62.90
18412;DHT22;27097;51.738;19.472;2022-09-09T06:43:48;23.10;62.70
18412;DHT22;27097;51.738;19.472;2022-09-09T06:46:18;23.10;62.60
18412;DHT22;27097;51.738;19.472;2022-09-09T06:48:45;23.10;62.10
18412;DHT22;27097;51.738;19.472;2022-09-09T06:51:14;23.10;62.60
18412;DHT22;27097;51.738;19.472;2022-09-09T06:53:42;23.20;62.80
18412;DHT22;27097;51.738;19.472;2022-09-09T06:56:22;23.20;62.30
18412;DHT22;27097;51.738;19.472;2022-09-09T06:58:50;23.20;62.00
18412;DHT22;27097;51.738;19.472;2022-09-09T07:01:20;23.20;61.70
18412;DHT22;27097;51.738;19.472;2022-09-09T07:03:48;23.20;62.20
18412;DHT22;27097;51.738;19.472;2022-09-09T07:06:18;23.30;62.50
18412;DHT22;27097;51.738;19.472;2022-09-09T07:08:49;23.30;62.10
18412;DHT22;27097;51.738;19.472;2022-09-09T07:11:18;23.30;62.20
18412;DHT22;27097;51.738;19.472;2022-09-09T07:13:45;23.30;62.60
18412;DHT22;27097;51.738;19.472;2022-09-09T07:16:13;23.30;62.00
18412;DHT22;27097;51.738;19.472;2022-09-09T07:18:42;23.30;62.20
18412;DHT22;27097;51.738;19.472;2022-09-09T07:21:10;23.30;62.30
18412;DHT22;27097;51.738;19.472;2022-09-09T07:23:39;23.30;62.30
18412;DHT22;27097;51.738;19.472;2022-09-09T07:26:08;23.30;62.60
18412;DHT22;27097;51.738;19.472;2022-09-09T07:28:36;23.40;62.90
18412;DHT22;27097;51.738;19.472;2022-09-09T07:31:05;23.40;63.60
18412;DHT22;27097;51.738;19.472;2022-09-09T07:33:34;23.40;63.60
18412;DHT22;27097;51.738;19.472;2022-09-09T07:36:05;23.40;63.90
18412;DHT22;27097;51.738;19.472;2022-09-09T07:38:38;23.40;64.00
18412;DHT22;27097;51.738;19.472;2022-09-09T07:41:07;23.40;63.80
18412;DHT22;27097;51.738;19.472;2022-09-09T07:43:37;23.50;63.80
18412;DHT22;27097;51.738;19.472;2022-09-09T07:46:04;23.50;63.90
18412;DHT22;27097;51.738;19.472;2022-09-09T07:48:31;23.50;63.50
18412;DHT22;27097;51.738;19.472;2022-09-09T07:51:08;23.50;64.00
18412;DHT22;27097;51.738;19.472;2022-09-09T07:53:36;23.60;64.20
18412;DHT22;27097;51.738;19.472;2022-09-09T07:56:05;23.60;63.70
18412;DHT22;27097;51.738;19.472;2022-09-09T07:58:32;23.70;63.70
18412;DHT22;27097;51.738;19.472;2022-09-09T08:00:59;23.70;63.80
18412;DHT22;27097;51.738;19.472;2022-09-09T08:03:26;23.80;63.70
18412;DHT22;27097;51.738;19.472;2022-09-09T08:05:53;23.80;63.70
18412;DHT22;27097;51.738;19.472;2022-09-09T08:08:30;23.80;63.70
18412;DHT22;27097;51.738;19.472;2022-09-09T08:11:04;23.80;63.50
18412;DHT22;27097;51.738;19.472;2022-09-09T08:13:33;23.80;63.60
18412;DHT22;27097;51.738;19.472;2022-09-09T08:16:05;23.80;63.60
18412;DHT22;27097;51.738;19.472;2022-09-09T08:18:32;23.90;63.60
18412;DHT22;27097;51.738;19.472;2022-09-09T08:21:05;23.90;63.10
18412;DHT22;27097;51.738;19.472;2022-09-09T08:23:35;23.90;63.10
18412;DHT22;27097;51.738;19.472;2022-09-09T08:26:07;23.90;63.20
18412;DHT22;27097;51.738;19.472;2022-09-09T08:28:36;24.00;63.40
18412;DHT22;27097;51.738;19.472;2022-09-09T08:31:11;24.00;63.40
18412;DHT22;27097;51.738;19.472;2022-09-09T08:33:39;24.00;63.30
18412;DHT22;27097;51.738;19.472;2022-09-09T08:36:09;24.10;63.30
18412;DHT22;27097;51.738;19.472;2022-09-09T08:38:38;24.20;62.80
18412;DHT22;27097;51.738;19.472;2022-09-09T08:41:26;24.30;62.20
18412;DHT22;27097;51.738;19.472;2022-09-09T08:44:02;24.30;61.70
18412;DHT22;27097;51.738;19.472;2022-09-09T08:46:36;24.40;61.60
18412;DHT22;27097;51.738;19.472;2022-09-09T08:49:18;24.50;61.80
18412;DHT22;27097;51.738;19.472;2022-09-09T08:51:49;24.50;61.40
18412;DHT22;27097;51.738;19.472;2022-09-09T08:54:18;24.50;61.50
18412;DHT22;27097;51.738;19.472;2022-09-09T08:56:45;24.50;61.50
18412;DHT22;27097;51.738;19.472;2022-09-09T08:59:16;24.50;61.40
18412;DHT22;27097;51.738;19.472;2022-09-09T09:02:05;24.50;61.10
18412;DHT22;27097;51.738;19.472;2022-09-09T09:07:42;24.60;61.10
18412;DHT22;27097;51.738;19.472;2022-09-09T09:10:19;24.60;61.10
18412;DHT22;27097;51.738;19.472;2022-09-09T09:12:52;24.50;60.90
18412;DHT22;27097;51.738;19.472;2022-09-09T09:15:23;24.50;61.10
18412;DHT22;27097;51.738;19.472;2022-09-09T09:17:51;24.50;61.00
18412;DHT22;27097;51.738;19.472;2022-09-09T09:20:22;24.60;60.90
18412;DHT22;27097;51.738;19.472;2022-09-09T09:22:51;24.60;61.00
18412;DHT22;27097;51.738;19.472;2022-09-09T09:25:21;24.60;61.10
18412;DHT22;27097;51.738;19.472;2022-09-09T09:27:56;24.60;60.90
18412;DHT22;27097;51.738;19.472;2022-09-09T09:30:31;24.60;60.90
18412;DHT22;27097;51.738;19.472;2022-09-09T09:33:04;24.60;60.70
18412;DHT22;27097;51.738;19.472;2022-09-09T09:35:33;24.70;60.70
18412;DHT22;27097;51.738;19.472;2022-09-09T09:38:00;24.80;60.30
18412;DHT22;27097;51.738;19.472;2022-09-09T09:40:29;24.80;60.40
18412;DHT22;27097;51.738;19.472;2022-09-09T09:42:58;24.80;60.30
18412;DHT22;27097;51.738;19.472;2022-09-09T09:45:31;24.90;60.20
18412;DHT22;27097;51.738;19.472;2022-09-09T09:48:01;24.90;60.20
18412;DHT22;27097;51.738;19.472;2022-09-09T09:50:29;24.90;60.50
18412;DHT22;27097;51.738;19.472;2022-09-09T09:52:58;24.90;60.90
18412;DHT22;27097;51.738;19.472;2022-09-09T09:55:26;24.90;61.60
18412;DHT22;27097;51.738;19.472;2022-09-09T09:58:03;24.90;62.30
18412;DHT22;27097;51.738;19.472;2022-09-09T10:00:30;24.90;63.30
18412;DHT22;27097;51.738;19.472;2022-09-09T10:02:59;24.90;64.20
18412;DHT22;27097;51.738;19.472;2022-09-09T10:05:28;24.90;64.60
18412;DHT22;27097;51.738;19.472;2022-09-09T10:08:08;24.90;65.10
18412;DHT22;27097;51.738;19.472;2022-09-09T10:10:46;24.90;65.00
18412;DHT22;27097;51.738;19.472;2022-09-09T10:13:21;24.90;65.60
18412;DHT22;27097;51.738;19.472;2022-09-09T10:16:00;24.90;65.60
18412;DHT22;27097;51.738;19.472;2022-09-09T10:18:58;24.90;66.30
18412;DHT22;27097;51.738;19.472;2022-09-09T10:21:45;24.90;66.50
18412;DHT22;27097;51.738;19.472;2022-09-09T10:27:17;24.90;66.30
18412;DHT22;27097;51.738;19.472;2022-09-09T10:29:59;25.00;67.20
18412;DHT22;27097;51.738;19.472;2022-09-09T10:32:37;25.00;67.50
18412;DHT22;27097;51.738;19.472;2022-09-09T10:35:10;25.00;67.10
18412;DHT22;27097;51.738;19.472;2022-09-09T10:38:05;24.90;66.90
18412;DHT22;27097;51.738;19.472;2022-09-09T10:40:41;25.00;66.90
18412;DHT22;27097;51.738;19.472;2022-09-09T10:43:17;24.90;67.00
18412;DHT22;27097;51.738;19.472;2022-09-09T10:46:04;24.90;67.20
18412;DHT22;27097;51.738;19.472;2022-09-09T10:49:07;24.90;67.60
18412;DHT22;27097;51.738;19.472;2022-09-09T10:52:01;24.90;67.70
18412;DHT22;27097;51.738;19.472;2022-09-09T10:54:43;25.00;67.90
18412;DHT22;27097;51.738;19.472;2022-09-09T10:57:21;24.90;67.70
18412;DHT22;27097;51.738;19.472;2022-09-09T10:59:56;24.90;67.30
18412;DHT22;27097;51.738;19.472;2022-09-09T11:02:28;24.90;67.30
18412;DHT22;27097;51.738;19.472;2022-09-09T11:04:57;24.90;67.50
18412;DHT22;27097;51.738;19.472;2022-09-09T11:07:32;24.90;67.70
18412;DHT22;27097;51.738;19.472;2022-09-09T11:10:04;24.90;67.90
18412;DHT22;27097;51.738;19.472;2022-09-09T11:12:34;24.90;68.00
18412;DHT22;27097;51.738;19.472;2022-09-09T11:15:06;24.90;68.00
18412;DHT22;27097;51.738;19.472;2022-09-09T11:17:41;25.00;68.30
18412;DHT22;27097;51.738;19.472;2022-09-09T11:20:18;25.00;68.20
18412;DHT22;27097;51.738;19.472;2022-09-09T11:22:48;25.00;67.90
18412;DHT22;27097;51.738;19.472;2022-09-09T11:25:21;25.00;67.70
18412;DHT22;27097;51.738;19.472;2022-09-09T11:28:00;25.00;68.10
18412;DHT22;27097;51.738;19.472;2022-09-09T11:30:38;25.00;68.20
18412;DHT22;27097;51.738;19.472;2022-09-09T11:36:23;25.00;68.50
18412;DHT22;27097;51.738;19.472;2022-09-09T11:38:56;25.00;68.50
18412;DHT22;27097;51.738;19.472;2022-09-09T11:41:34;25.10;68.60
18412;DHT22;27097;51.738;19.472;2022-09-09T11:44:10;25.10;68.50
18412;DHT22;27097;51.738;19.472;2022-09-09T11:46:41;25.10;68.10
18412;DHT22;27097;51.738;19.472;2022-09-09T11:49:28;25.10;68.20
18412;DHT22;27097;51.738;19.472;2022-09-09T11:51:57;25.10;68.00
18412;DHT22;27097;51.738;19.472;2022-09-09T11:54:32;25.10;68.10
18412;DHT22;27097;51.738;19.472;2022-09-09T11:57:02;25.10;68.00
18412;DHT22;27097;51.738;19.472;2022-09-09T11:59:31;25.10;68.10
18412;DHT22;27097;51.738;19.472;2022-09-09T12:01:59;25.10;68.00
18412;DHT22;27097;51.738;19.472;2022-09-09T12:04:35;25.10;67.90
18412;DHT22;27097;51.738;19.472;2022-09-09T12:07:27;25.10;67.50
18412;DHT22;27097;51.738;19.472;2022-09-09T12:09:59;25.10;67.20
18412;DHT22;27097;51.738;19.472;2022-09-09T12:12:30;25.10;67.40
18412;DHT22;27097;51.738;19.472;2022-09-09T12:15:22;25.10;67.20
18412;DHT22;27097;51.738;19.472;2022-09-09T12:17:51;25.10;67.20
18412;DHT22;27097;51.738;19.472;2022-09-09T12:20:22;25.10;67.50
18412;DHT22;27097;51.738;19.472;2022-09-09T12:23:27;25.10;67.20
18412;DHT22;27097;51.738;19.472;2022-09-09T12:26:06;25.10;66.80
18412;DHT22;27097;51.738;19.472;2022-09-09T12:28:49;25.10;66.30
18412;DHT22;27097;51.738;19.472;2022-09-09T12:31:22;25.10;66.10
18412;DHT22;27097;51.738;19.472;2022-09-09T12:33:51;25.10;66.10
18412;DHT22;27097;51.738;19.472;2022-09-09T12:36:24;25.10;65.20
18412;DHT22;27097;51.738;19.472;2022-09-09T12:38:51;25.10;63.20
18412;DHT22;27097;51.738;19.472;2022-09-09T12:41:20;25.20;63.50
18412;DHT22;27097;51.738;19.472;2022-09-09T12:43:47;25.30;63.60
18412;DHT22;27097;51.738;19.472;2022-09-09T12:46:22;25.30;63.90
18412;DHT22;27097;51.738;19.472;2022-09-09T12:48:53;25.30;64.30
18412;DHT22;27097;51.738;19.472;2022-09-09T12:51:26;25.30;64.60
18412;DHT22;27097;51.738;19.472;2022-09-09T12:53:54;25.30;64.10
18412;DHT22;27097;51.738;19.472;2022-09-09T12:56:24;25.30;63.80
18412;DHT22;27097;51.738;19.472;2022-09-09T12:58:54;25.40;63.80
18412;DHT22;27097;51.738;19.472;2022-09-09T13:01:24;25.40;62.60
18412;DHT22;27097;51.738;19.472;2022-09-09T13:03:51;25.40;61.90
18412;DHT22;27097;51.738;19.472;2022-09-09T13:06:24;25.40;62.10
18412;DHT22;27097;51.738;19.472;2022-09-09T13:08:52;25.50;62.40
18412;DHT22;27097;51.738;19.472;2022-09-09T13:11:21;25.50;62.40
18412;DHT22;27097;51.738;19.472;2022-09-09T13:13:53;25.50;61.40
18412;DHT22;27097;51.738;19.472;2022-09-09T13:16:22;25.60;61.50
18412;DHT22;27097;51.738;19.472;2022-09-09T13:18:52;25.60;61.60
18412;DHT22;27097;51.738;19.472;2022-09-09T13:21:33;25.70;61.70
18412;DHT22;27097;51.738;19.472;2022-09-09T13:24:00;25.70;61.30
18412;DHT22;27097;51.738;19.472;2022-09-09T13:26:29;25.70;60.70
18412;DHT22;27097;51.738;19.472;2022-09-09T13:29:09;25.70;60.70
18412;DHT22;27097;51.738;19.472;2022-09-09T13:31:43;25.60;61.10
18412;DHT22;27097;51.738;19.472;2022-09-09T13:34:14;25.60;61.10
18412;DHT22;27097;51.738;19.472;2022-09-09T13:37:00;25.60;61.20
18412;DHT22;27097;51.738;19.472;2022-09-09T13:39:32;25.60;61.50
18412;DHT22;27097;51.738;19.472;2022-09-09T13:42:00;25.60;61.30
18412;DHT22;27097;51.738;19.472;2022-09-09T13:44:31;25.60;61.50
18412;DHT22;27097;51.738;19.472;2022-09-09T13:47:03;25.60;61.50
18412;DHT22;27097;51.738;19.472;2022-09-09T13:49:31;25.60;60.50
18412;DHT22;27097;51.738;19.472;2022-09-09T13:52:10;25.60;60.30
18412;DHT22;27097;51.738;19.472;2022-09-09T13:54:39;25.60;59.50
18412;DHT22;27097;51.738;19.472;2022-09-09T13:57:15;25.60;60.10
18412;DHT22;27097;51.738;19.472;2022-09-09T13:59:42;25.60;61.20
18412;DHT22;27097;51.738;19.472;2022-09-09T14:02:09;25.60;60.20
18412;DHT22;27097;51.738;19.472;2022-09-09T14:04:36;25.60;60.60
18412;DHT22;27097;51.738;19.472;2022-09-09T14:07:03;25.60;60.00
18412;DHT22;27097;51.738;19.472;2022-09-09T14:09:31;25.60;60.60
18412;DHT22;27097;51.738;19.472;2022-09-09T14:11:58;25.60;60.20
18412;DHT22;27097;51.738;19.472;2022-09-09T14:14:25;25.60;60.60
18412;DHT22;27097;51.738;19.472;2022-09-09T14:16:52;25.60;60.30
18412;DHT22;27097;51.738;19.472;2022-09-09T14:19:19;25.60;60.80
18412;DHT22;27097;51.738;19.472;2022-09-09T14:21:46;25.60;60.30
18412;DHT22;27097;51.738;19.472;2022-09-09T14:24:13;25.60;60.50
18412;DHT22;27097;51.738;19.472;2022-09-09T14:26:41;25.60;60.60
18412;DHT22;27097;51.738;19.472;2022-09-09T14:29:08;25.60;61.20
18412;DHT22;27097;51.738;19.472;2022-09-09T14:31:35;25.60;60.60
18412;DHT22;27097;51.738;19.472;2022-09-09T14:34:02;25.60;60.40
18412;DHT22;27097;51.738;19.472;2022-09-09T14:36:29;25.60;60.20
18412;DHT22;27097;51.738;19.472;2022-09-09T14:38:56;25.60;60.30
18412;DHT22;27097;51.738;19.472;2022-09-09T14:41:24;25.60;60.70
18412;DHT22;27097;51.738;19.472;2022-09-09T14:43:52;25.60;60.70
18412;DHT22;27097;51.738;19.472;2022-09-09T14:46:20;25.60;60.60
18412;DHT22;27097;51.738;19.472;2022-09-09T14:48:47;25.60;61.00
18412;DHT22;27097;51.738;19.472;2022-09-09T14:51:17;25.60;61.10
18412;DHT22;27097;51.738;19.472;2022-09-09T14:53:45;25.60;61.10
18412;DHT22;27097;51.738;19.472;2022-09-09T14:56:15;25.60;60.90
18412;DHT22;27097;51.738;19.472;2022-09-09T14:58:42;25.60;60.50
18412;DHT22;27097;51.738;19.472;2022-09-09T15:01:13;25.60;60.80
18412;DHT22;27097;51.738;19.472;2022-09-09T15:03:41;25.60;60.60
18412;DHT22;27097;51.738;19.472;2022-09-09T15:06:10;25.60;60.50
18412;DHT22;27097;51.738;19.472;2022-09-09T15:08:38;25.60;60.50
18412;DHT22;27097;51.738;19.472;2022-09-09T15:11:06;25.60;60.50
18412;DHT22;27097;51.738;19.472;2022-09-09T15:13:35;25.60;60.60
18412;DHT22;27097;51.738;19.472;2022-09-09T15:16:06;25.60;60.20
18412;DHT22;27097;51.738;19.472;2022-09-09T15:18:35;25.60;60.20
18412;DHT22;27097;51.738;19.472;2022-09-09T15:21:05;25.60;60.00
18412;DHT22;27097;51.738;19.472;2022-09-09T15:23:32;25.60;60.10
18412;DHT22;27097;51.738;19.472;2022-09-09T15:26:00;25.60;60.70
18412;DHT22;27097;51.738;19.472;2022-09-09T15:28:26;25.60;60.30
18412;DHT22;27097;51.738;19.472;2022-09-09T15:30:54;25.60;60.60
18412;DHT22;27097;51.738;19.472;2022-09-09T15:33:22;25.60;60.40
18412;DHT22;27097;51.738;19.472;2022-09-09T15:35:51;25.60;60.50
18412;DHT22;27097;51.738;19.472;2022-09-09T15:38:17;25.60;60.50
18412;DHT22;27097;51.738;19.472;2022-09-09T15:40:45;25.60;60.30
18412;DHT22;27097;51.738;19.472;2022-09-09T15:43:19;25.60;60.50
18412;DHT22;27097;51.738;19.472;2022-09-09T15:45:49;25.50;60.10
18412;DHT22;27097;51.738;19.472;2022-09-09T15:48:18;25.50;60.00
18412;DHT22;27097;51.738;19.472;2022-09-09T15:50:45;25.50;60.10